C. Angelo — WCZ5866 — position and weather

sailwx.info

Track history (hours):
 
Tides and Currents Weather Stations Pressure Air Temp Water Temp Dewpoint Dewpoint Depression Visibility Wind Speed Wind Dir Waves Ship Positions

C. Angelo

Owner: G T 110 INC, NEW HAVEN, CT. More information available from US FCC via Universal Licensing System and Coast Guard Vessel Documentation Center.

Last reported at 2015-Mar-02 02:17 UTC. Time now 2015-Mar-02 11:12 UTC.
Position N 41°18' W 072°54'.

Length 30 m; draft 4.1 m.

Type: Tug. MMSI: 366988420.

Date/timePositionNaut miles runAvg speedWind from/ knotsBaromVisibWave heightAir tempDewpointWater temp
2015-Mar-02 02:17N 41°18' W 072°54'0 0.0
2015-Mar-01 23:32N 41°18' W 072°54'0 0.0
2015-Mar-01 20:08N 41°18' W 072°54'0 0.0
2015-Mar-01 16:30N 41°18' W 072°54'1 0.4
2015-Mar-01 14:34N 41°17' W 072°55'1 0.9
2015-Mar-01 13:33N 41°18' W 072°54'0 0.0
2015-Mar-01 12:32N 41°18' W 072°54'0 0.0
2015-Mar-01 11:34N 41°18' W 072°54'0 0.0
2015-Mar-01 10:34N 41°18' W 072°54'0 0.0
2015-Mar-01 09:34N 41°18' W 072°54'0 0.0
2015-Mar-01 08:34N 41°18' W 072°54'0 0.0
2015-Mar-01 07:16N 41°18' W 072°54'0 0.0
2015-Mar-01 06:32N 41°18' W 072°54'0 0.0
2015-Mar-01 03:10N 41°18' W 072°54'0 0.0
2015-Mar-01 02:22N 41°18' W 072°54'0 0.0
2015-Feb-28 23:25N 41°18' W 072°54'0 0.0
2015-Feb-28 18:15N 41°18' W 072°54'0 0.0
2015-Feb-28 16:32N 41°18' W 072°54'0 0.0
2015-Feb-28 15:26N 41°18' W 072°54'0 0.0
2015-Feb-28 14:07N 41°18' W 072°54'0 0.0
2015-Feb-28 13:29N 41°18' W 072°54'0 0.0
2015-Feb-28 02:25N 41°18' W 072°54'0 0.0
2015-Feb-28 00:33N 41°18' W 072°54'0 0.0
2015-Feb-27 23:18N 41°18' W 072°54'0 0.0
2015-Feb-27 20:32N 41°18' W 072°54'0 0.0
2015-Feb-27 18:30N 41°18' W 072°54'0 0.0
2015-Feb-27 17:23N 41°18' W 072°54'0 0.0
2015-Feb-27 16:21N 41°18' W 072°54'0 0.0
2015-Feb-27 15:19N 41°18' W 072°54'0 0.0
2015-Feb-27 14:34N 41°18' W 072°54'0 0.0
2015-Feb-27 13:33N 41°18' W 072°54'0 0.0
2015-Feb-27 12:34N 41°18' W 072°54'0 0.0
2015-Feb-27 11:33N 41°18' W 072°54'0 0.0
2015-Feb-27 10:34N 41°18' W 072°54'0 0.0
2015-Feb-27 09:34N 41°18' W 072°54'0 0.0
2015-Feb-27 08:34N 41°18' W 072°54'0 0.0
2015-Feb-27 07:33N 41°18' W 072°54'0 0.0
2015-Feb-27 06:33N 41°18' W 072°54'0 0.0
2015-Feb-27 05:34N 41°18' W 072°54'0 0.0
2015-Feb-27 04:34N 41°18' W 072°54'0 0.0
2015-Feb-27 03:34N 41°18' W 072°54'0 0.0
2015-Feb-27 02:33N 41°18' W 072°54'0 0.0
2015-Feb-27 01:34N 41°18' W 072°54'0 0.0
2015-Feb-27 00:34N 41°18' W 072°54'0 0.0
2015-Feb-26 23:34N 41°18' W 072°54'0 0.1
2015-Feb-26 22:33N 41°18' W 072°54'1 0.6
2015-Feb-26 21:33N 41°17' W 072°55'1 0.6
2015-Feb-26 20:33N 41°18' W 072°54'0 0.0
2015-Feb-26 19:34N 41°18' W 072°54'0 0.0
2015-Feb-26 18:33N 41°18' W 072°54'0 0.0
2015-Feb-26 17:33N 41°18' W 072°54'0 0.0
2015-Feb-26 16:33N 41°18' W 072°54'0 0.0
2015-Feb-26 15:33N 41°18' W 072°54'0 0.0
2015-Feb-26 14:33N 41°18' W 072°54'0 0.0
2015-Feb-26 13:33N 41°18' W 072°54'0 0.0
2015-Feb-26 12:34N 41°18' W 072°54'2 2.5
2015-Feb-26 11:34N 41°15' W 072°55'2 2.5
2015-Feb-26 10:34N 41°18' W 072°54'0 0.0
2015-Feb-26 09:33N 41°18' W 072°54'0 0.0
2015-Feb-26 08:32N 41°18' W 072°54'0 0.0
2015-Feb-26 07:33N 41°18' W 072°54'0 0.0
2015-Feb-26 06:33N 41°18' W 072°54'0 0.0
2015-Feb-26 05:33N 41°18' W 072°54'0 0.0
2015-Feb-26 04:33N 41°18' W 072°54'0 0.0
2015-Feb-26 03:33N 41°18' W 072°54'0 0.0
2015-Feb-26 02:33N 41°18' W 072°54'0 0.0
2015-Feb-26 01:33N 41°18' W 072°54'0 0.0
2015-Feb-26 00:33N 41°18' W 072°54'0 0.0
2015-Feb-25 23:32N 41°18' W 072°54'0 0.4
2015-Feb-25 22:33N 41°17' W 072°55'0 0.0
2015-Feb-25 21:33N 41°17' W 072°55'1 1.5
2015-Feb-25 20:33N 41°16' W 072°55'2 1.8
2015-Feb-25 19:32N 41°18' W 072°54'0 0.0
2015-Feb-25 18:33N 41°18' W 072°54'0 0.0
2015-Feb-25 17:34N 41°18' W 072°54'0 0.0
2015-Feb-25 16:33N 41°18' W 072°54'6 6.5
2015-Feb-25 15:33N 41°11' W 072°52'1111.5
2015-Feb-25 14:34N 41°03' W 072°42'4 3.7
2015-Feb-25 13:33N 41°00' W 072°39'1 1.2
2015-Feb-25 12:34N 41°01' W 072°37'1111.2
2015-Feb-25 11:33N 41°01' W 072°52'1212.3
2015-Feb-25 10:33N 41°01' W 073°09'1211.9
2015-Feb-25 09:34N 40°60' W 073°24'9 8.6
2015-Feb-25 08:34N 40°56' W 073°35'1110.9
2015-Feb-25 07:33N 40°50' W 073°46'10 9.6
2015-Feb-25 06:33N 40°45' W 073°58'9 8.1
2015-Feb-25 05:25N 40°39' W 074°07'0 0.0
2015-Feb-25 04:34N 40°39' W 074°07'0 0.0
2015-Feb-25 03:34N 40°39' W 074°07'0 0.0
2015-Feb-25 02:32N 40°39' W 074°07'0 0.1
2015-Feb-25 01:34N 40°39' W 074°07'5 4.7
2015-Feb-25 00:34N 40°40' W 074°01'0 0.2
2015-Feb-24 23:34N 40°40' W 074°00'0 0.0
2015-Feb-24 22:34N 40°40' W 074°00'0 0.0
2015-Feb-24 21:34N 40°40' W 074°00'0 0.0
2015-Feb-24 20:33N 40°40' W 074°00'0 0.0
2015-Feb-24 19:34N 40°40' W 074°00'0 0.0
2015-Feb-24 18:33N 40°40' W 074°00'0 0.0
2015-Feb-24 17:33N 40°40' W 074°00'0 0.0
2015-Feb-24 16:34N 40°40' W 074°00'0 0.0
2015-Feb-24 15:34N 40°40' W 074°00'0 0.0
2015-Feb-24 14:34N 40°40' W 074°00'0 0.0
2015-Feb-24 13:34N 40°40' W 074°00'0 0.0
2015-Feb-24 12:34N 40°40' W 074°00'0 0.0
2015-Feb-24 11:33N 40°40' W 074°00'0 0.0
2015-Feb-24 10:34N 40°40' W 074°00'0 0.0
2015-Feb-24 09:34N 40°40' W 074°00'0 0.0
2015-Feb-24 08:34N 40°40' W 074°00'0 0.0
2015-Feb-24 07:33N 40°40' W 074°00'0 0.0
2015-Feb-24 06:33N 40°40' W 074°00'0 0.0
2015-Feb-24 05:33N 40°40' W 074°00'4 3.7
2015-Feb-24 04:34N 40°43' W 073°58'10 8.1
2015-Feb-24 03:21N 40°48' W 073°47'1011.1
2015-Feb-24 02:27N 40°55' W 073°38'1111.8
2015-Feb-24 01:33N 41°00' W 073°25'1110.9
2015-Feb-24 00:33N 41°06' W 073°13'4 4.4
2015-Feb-23 23:33N 41°10' W 073°10'0 0.1
2015-Feb-23 22:33N 41°10' W 073°10'4 3.9
2015-Feb-23 21:33N 41°07' W 073°13'4 3.7
2015-Feb-23 20:32N 41°10' W 073°10'0 0.1
2015-Feb-23 19:34N 41°10' W 073°10'6 5.5
2015-Feb-23 18:34N 41°07' W 073°04'1111.0
2015-Feb-23 17:33N 41°16' W 072°55'2 1.8
2015-Feb-23 16:33N 41°18' W 072°54'0 0.1
2015-Feb-23 15:34N 41°18' W 072°54'0 0.1
2015-Feb-23 14:32N 41°18' W 072°54'0 0.1
2015-Feb-23 13:33N 41°18' W 072°54'0 0.3
2015-Feb-23 12:33N 41°17' W 072°55'0 0.0
2015-Feb-23 11:34N 41°17' W 072°55'0 0.3
2015-Feb-23 10:30N 41°18' W 072°54'0 0.0
2015-Feb-23 09:33N 41°18' W 072°54'0 0.0
2015-Feb-23 08:34N 41°18' W 072°54'0 0.0
2015-Feb-23 07:33N 41°18' W 072°54'0 0.0
2015-Feb-23 06:33N 41°18' W 072°54'0 0.0
2015-Feb-23 05:33N 41°18' W 072°54'0 0.0
2015-Feb-23 04:33N 41°18' W 072°54'0 0.0
2015-Feb-23 03:33N 41°18' W 072°54'0 0.0
2015-Feb-23 02:32N 41°18' W 072°54'0 0.0
2015-Feb-23 01:34N 41°18' W 072°54'0 0.0
2015-Feb-23 00:33N 41°18' W 072°54'0 0.0
2015-Feb-22 23:27N 41°18' W 072°54'0 0.0
2015-Feb-22 22:34N 41°18' W 072°54'0 0.0
2015-Feb-22 21:33N 41°18' W 072°54'0 0.4
2015-Feb-22 20:33N 41°17' W 072°55'0 0.4
2015-Feb-22 19:34N 41°18' W 072°54'0 0.0
2015-Feb-22 18:32N 41°18' W 072°54'0 0.0
2015-Feb-22 17:34N 41°18' W 072°54'0 0.0
2015-Feb-22 16:33N 41°18' W 072°54'0 0.0
2015-Feb-22 02:20N 41°18' W 072°54'0 0.0
2015-Feb-22 01:34N 41°18' W 072°54'0 0.0
2015-Feb-22 00:33N 41°18' W 072°54'0 0.0
2015-Feb-21 23:34N 41°18' W 072°54'0 0.0
2015-Feb-21 22:34N 41°18' W 072°54'4 4.0
2015-Feb-21 21:33N 41°14' W 072°55'4 3.9
2015-Feb-21 20:31N 41°18' W 072°54'0 0.1
2015-Feb-21 19:33N 41°18' W 072°54'0 0.0
2015-Feb-21 18:33N 41°18' W 072°54'0 0.0
2015-Feb-21 17:34N 41°18' W 072°54'0 0.0
2015-Feb-21 16:33N 41°18' W 072°54'0 0.0
2015-Feb-21 15:33N 41°18' W 072°54'0 0.0
2015-Feb-21 14:34N 41°18' W 072°54'0 0.0
2015-Feb-21 13:33N 41°18' W 072°54'0 0.0
2015-Feb-21 12:34N 41°18' W 072°54'0 0.0
2015-Feb-21 11:34N 41°18' W 072°54'0 0.0
2015-Feb-21 10:34N 41°18' W 072°54'0 0.0
2015-Feb-21 09:34N 41°18' W 072°54'0 0.0
2015-Feb-21 08:33N 41°18' W 072°54'0 0.0
2015-Feb-21 07:34N 41°18' W 072°54'0 0.0
2015-Feb-21 06:34N 41°18' W 072°54'6 6.3
2015-Feb-21 05:33N 41°11' W 072°56'1110.3
2015-Feb-21 04:31N 41°06' W 073°08'4 4.4
2015-Feb-21 03:33N 41°10' W 073°10'4 4.0
2015-Feb-21 02:34N 41°07' W 073°08'1211.7
2015-Feb-21 01:34N 41°13' W 072°55'4 4.5
2015-Feb-21 00:34N 41°18' W 072°54'0 0.0
2015-Feb-20 23:34N 41°18' W 072°54'0 0.0
2015-Feb-20 22:34N 41°18' W 072°54'0 0.0
2015-Feb-20 21:34N 41°18' W 072°54'0 0.4
2015-Feb-20 20:33N 41°17' W 072°55'0 0.2
2015-Feb-20 19:32N 41°18' W 072°55'0 0.1
2015-Feb-20 18:10N 41°18' W 072°54'0 0.0
2015-Feb-20 15:18N 41°18' W 072°54'0 0.0
2015-Feb-20 14:32N 41°18' W 072°54'0 0.0
2015-Feb-20 04:23N 41°18' W 072°54'0 0.0
2015-Feb-20 03:33N 41°18' W 072°54'  
Track history (hours):
 
Tides and Currents Weather Stations Pressure Air Temp Water Temp Dewpoint Dewpoint Depression Visibility Wind Speed Wind Dir Waves Ship Positions

C. Angelo

Owner: G T 110 INC, NEW HAVEN, CT. More information available from US FCC via Universal Licensing System and Coast Guard Vessel Documentation Center.

Last reported at 2015-Mar-02 02:17 UTC. Time now 2015-Mar-02 11:12 UTC.
Position N 41°18' W 072°54'.

Length 30 m; draft 4.1 m.

Type: Tug. MMSI: 366988420.

Date/timePositionNaut miles runAvg speedWind from/ knotsBaromVisibWave heightAir tempDewpointWater temp
2015-Mar-02 02:17N 41°18' W 072°54'0 0.0
2015-Mar-01 23:32N 41°18' W 072°54'0 0.0
2015-Mar-01 20:08N 41°18' W 072°54'0 0.0
2015-Mar-01 16:30N 41°18' W 072°54'1 0.4
2015-Mar-01 14:34N 41°17' W 072°55'1 0.9
2015-Mar-01 13:33N 41°18' W 072°54'0 0.0
2015-Mar-01 12:32N 41°18' W 072°54'0 0.0
2015-Mar-01 11:34N 41°18' W 072°54'0 0.0
2015-Mar-01 10:34N 41°18' W 072°54'0 0.0
2015-Mar-01 09:34N 41°18' W 072°54'0 0.0
2015-Mar-01 08:34N 41°18' W 072°54'0 0.0
2015-Mar-01 07:16N 41°18' W 072°54'0 0.0
2015-Mar-01 06:32N 41°18' W 072°54'0 0.0
2015-Mar-01 03:10N 41°18' W 072°54'0 0.0
2015-Mar-01 02:22N 41°18' W 072°54'0 0.0
2015-Feb-28 23:25N 41°18' W 072°54'0 0.0
2015-Feb-28 18:15N 41°18' W 072°54'0 0.0
2015-Feb-28 16:32N 41°18' W 072°54'0 0.0
2015-Feb-28 15:26N 41°18' W 072°54'0 0.0
2015-Feb-28 14:07N 41°18' W 072°54'0 0.0
2015-Feb-28 13:29N 41°18' W 072°54'0 0.0
2015-Feb-28 02:25N 41°18' W 072°54'0 0.0
2015-Feb-28 00:33N 41°18' W 072°54'0 0.0
2015-Feb-27 23:18N 41°18' W 072°54'0 0.0
2015-Feb-27 20:32N 41°18' W 072°54'0 0.0
2015-Feb-27 18:30N 41°18' W 072°54'0 0.0
2015-Feb-27 17:23N 41°18' W 072°54'0 0.0
2015-Feb-27 16:21N 41°18' W 072°54'0 0.0
2015-Feb-27 15:19N 41°18' W 072°54'0 0.0
2015-Feb-27 14:34N 41°18' W 072°54'0 0.0
2015-Feb-27 13:33N 41°18' W 072°54'0 0.0
2015-Feb-27 12:34N 41°18' W 072°54'0 0.0
2015-Feb-27 11:33N 41°18' W 072°54'0 0.0
2015-Feb-27 10:34N 41°18' W 072°54'0 0.0
2015-Feb-27 09:34N 41°18' W 072°54'0 0.0
2015-Feb-27 08:34N 41°18' W 072°54'0 0.0
2015-Feb-27 07:33N 41°18' W 072°54'0 0.0
2015-Feb-27 06:33N 41°18' W 072°54'0 0.0
2015-Feb-27 05:34N 41°18' W 072°54'0 0.0
2015-Feb-27 04:34N 41°18' W 072°54'0 0.0
2015-Feb-27 03:34N 41°18' W 072°54'0 0.0
2015-Feb-27 02:33N 41°18' W 072°54'0 0.0
2015-Feb-27 01:34N 41°18' W 072°54'0 0.0
2015-Feb-27 00:34N 41°18' W 072°54'0 0.0
2015-Feb-26 23:34N 41°18' W 072°54'0 0.1
2015-Feb-26 22:33N 41°18' W 072°54'1 0.6
2015-Feb-26 21:33N 41°17' W 072°55'1 0.6
2015-Feb-26 20:33N 41°18' W 072°54'0 0.0
2015-Feb-26 19:34N 41°18' W 072°54'0 0.0
2015-Feb-26 18:33N 41°18' W 072°54'0 0.0
2015-Feb-26 17:33N 41°18' W 072°54'0 0.0
2015-Feb-26 16:33N 41°18' W 072°54'0 0.0
2015-Feb-26 15:33N 41°18' W 072°54'0 0.0
2015-Feb-26 14:33N 41°18' W 072°54'0 0.0
2015-Feb-26 13:33N 41°18' W 072°54'0 0.0
2015-Feb-26 12:34N 41°18' W 072°54'2 2.5
2015-Feb-26 11:34N 41°15' W 072°55'2 2.5
2015-Feb-26 10:34N 41°18' W 072°54'0 0.0
2015-Feb-26 09:33N 41°18' W 072°54'0 0.0
2015-Feb-26 08:32N 41°18' W 072°54'0 0.0
2015-Feb-26 07:33N 41°18' W 072°54'0 0.0
2015-Feb-26 06:33N 41°18' W 072°54'0 0.0
2015-Feb-26 05:33N 41°18' W 072°54'0 0.0
2015-Feb-26 04:33N 41°18' W 072°54'0 0.0
2015-Feb-26 03:33N 41°18' W 072°54'0 0.0
2015-Feb-26 02:33N 41°18' W 072°54'0 0.0
2015-Feb-26 01:33N 41°18' W 072°54'0 0.0
2015-Feb-26 00:33N 41°18' W 072°54'0 0.0
2015-Feb-25 23:32N 41°18' W 072°54'0 0.4
2015-Feb-25 22:33N 41°17' W 072°55'0 0.0
2015-Feb-25 21:33N 41°17' W 072°55'1 1.5
2015-Feb-25 20:33N 41°16' W 072°55'2 1.8
2015-Feb-25 19:32N 41°18' W 072°54'0 0.0
2015-Feb-25 18:33N 41°18' W 072°54'0 0.0
2015-Feb-25 17:34N 41°18' W 072°54'0 0.0
2015-Feb-25 16:33N 41°18' W 072°54'6 6.5
2015-Feb-25 15:33N 41°11' W 072°52'1111.5
2015-Feb-25 14:34N 41°03' W 072°42'4 3.7
2015-Feb-25 13:33N 41°00' W 072°39'1 1.2
2015-Feb-25 12:34N 41°01' W 072°37'1111.2
2015-Feb-25 11:33N 41°01' W 072°52'1212.3
2015-Feb-25 10:33N 41°01' W 073°09'1211.9
2015-Feb-25 09:34N 40°60' W 073°24'9 8.6
2015-Feb-25 08:34N 40°56' W 073°35'1110.9
2015-Feb-25 07:33N 40°50' W 073°46'10 9.6
2015-Feb-25 06:33N 40°45' W 073°58'9 8.1
2015-Feb-25 05:25N 40°39' W 074°07'0 0.0
2015-Feb-25 04:34N 40°39' W 074°07'0 0.0
2015-Feb-25 03:34N 40°39' W 074°07'0 0.0
2015-Feb-25 02:32N 40°39' W 074°07'0 0.1
2015-Feb-25 01:34N 40°39' W 074°07'5 4.7
2015-Feb-25 00:34N 40°40' W 074°01'0 0.2
2015-Feb-24 23:34N 40°40' W 074°00'0 0.0
2015-Feb-24 22:34N 40°40' W 074°00'0 0.0
2015-Feb-24 21:34N 40°40' W 074°00'0 0.0
2015-Feb-24 20:33N 40°40' W 074°00'0 0.0
2015-Feb-24 19:34N 40°40' W 074°00'0 0.0
2015-Feb-24 18:33N 40°40' W 074°00'0 0.0
2015-Feb-24 17:33N 40°40' W 074°00'0 0.0
2015-Feb-24 16:34N 40°40' W 074°00'0 0.0
2015-Feb-24 15:34N 40°40' W 074°00'0 0.0
2015-Feb-24 14:34N 40°40' W 074°00'0 0.0
2015-Feb-24 13:34N 40°40' W 074°00'0 0.0
2015-Feb-24 12:34N 40°40' W 074°00'0 0.0
2015-Feb-24 11:33N 40°40' W 074°00'0 0.0
2015-Feb-24 10:34N 40°40' W 074°00'0 0.0
2015-Feb-24 09:34N 40°40' W 074°00'0 0.0
2015-Feb-24 08:34N 40°40' W 074°00'0 0.0
2015-Feb-24 07:33N 40°40' W 074°00'0 0.0
2015-Feb-24 06:33N 40°40' W 074°00'0 0.0
2015-Feb-24 05:33N 40°40' W 074°00'4 3.7
2015-Feb-24 04:34N 40°43' W 073°58'10 8.1
2015-Feb-24 03:21N 40°48' W 073°47'1011.1
2015-Feb-24 02:27N 40°55' W 073°38'1111.8
2015-Feb-24 01:33N 41°00' W 073°25'1110.9
2015-Feb-24 00:33N 41°06' W 073°13'4 4.4
2015-Feb-23 23:33N 41°10' W 073°10'0 0.1
2015-Feb-23 22:33N 41°10' W 073°10'4 3.9
2015-Feb-23 21:33N 41°07' W 073°13'4 3.7
2015-Feb-23 20:32N 41°10' W 073°10'0 0.1
2015-Feb-23 19:34N 41°10' W 073°10'6 5.5
2015-Feb-23 18:34N 41°07' W 073°04'1111.0
2015-Feb-23 17:33N 41°16' W 072°55'2 1.8
2015-Feb-23 16:33N 41°18' W 072°54'0 0.1
2015-Feb-23 15:34N 41°18' W 072°54'0 0.1
2015-Feb-23 14:32N 41°18' W 072°54'0 0.1
2015-Feb-23 13:33N 41°18' W 072°54'0 0.3
2015-Feb-23 12:33N 41°17' W 072°55'0 0.0
2015-Feb-23 11:34N 41°17' W 072°55'0 0.3
2015-Feb-23 10:30N 41°18' W 072°54'0 0.0
2015-Feb-23 09:33N 41°18' W 072°54'0 0.0
2015-Feb-23 08:34N 41°18' W 072°54'0 0.0
2015-Feb-23 07:33N 41°18' W 072°54'0 0.0
2015-Feb-23 06:33N 41°18' W 072°54'0 0.0
2015-Feb-23 05:33N 41°18' W 072°54'0 0.0
2015-Feb-23 04:33N 41°18' W 072°54'0 0.0
2015-Feb-23 03:33N 41°18' W 072°54'0 0.0
2015-Feb-23 02:32N 41°18' W 072°54'0 0.0
2015-Feb-23 01:34N 41°18' W 072°54'0 0.0
2015-Feb-23 00:33N 41°18' W 072°54'0 0.0
2015-Feb-22 23:27N 41°18' W 072°54'0 0.0
2015-Feb-22 22:34N 41°18' W 072°54'0 0.0
2015-Feb-22 21:33N 41°18' W 072°54'0 0.4
2015-Feb-22 20:33N 41°17' W 072°55'0 0.4
2015-Feb-22 19:34N 41°18' W 072°54'0 0.0
2015-Feb-22 18:32N 41°18' W 072°54'0 0.0
2015-Feb-22 17:34N 41°18' W 072°54'0 0.0
2015-Feb-22 16:33N 41°18' W 072°54'0 0.0
2015-Feb-22 02:20N 41°18' W 072°54'0 0.0
2015-Feb-22 01:34N 41°18' W 072°54'0 0.0
2015-Feb-22 00:33N 41°18' W 072°54'0 0.0
2015-Feb-21 23:34N 41°18' W 072°54'0 0.0
2015-Feb-21 22:34N 41°18' W 072°54'4 4.0
2015-Feb-21 21:33N 41°14' W 072°55'4 3.9
2015-Feb-21 20:31N 41°18' W 072°54'0 0.1
2015-Feb-21 19:33N 41°18' W 072°54'0 0.0
2015-Feb-21 18:33N 41°18' W 072°54'0 0.0
2015-Feb-21 17:34N 41°18' W 072°54'0 0.0
2015-Feb-21 16:33N 41°18' W 072°54'0 0.0
2015-Feb-21 15:33N 41°18' W 072°54'0 0.0
2015-Feb-21 14:34N 41°18' W 072°54'0 0.0
2015-Feb-21 13:33N 41°18' W 072°54'0 0.0
2015-Feb-21 12:34N 41°18' W 072°54'0 0.0
2015-Feb-21 11:34N 41°18' W 072°54'0 0.0
2015-Feb-21 10:34N 41°18' W 072°54'0 0.0
2015-Feb-21 09:34N 41°18' W 072°54'0 0.0
2015-Feb-21 08:33N 41°18' W 072°54'0 0.0
2015-Feb-21 07:34N 41°18' W 072°54'0 0.0
2015-Feb-21 06:34N 41°18' W 072°54'6 6.3
2015-Feb-21 05:33N 41°11' W 072°56'1110.3
2015-Feb-21 04:31N 41°06' W 073°08'4 4.4
2015-Feb-21 03:33N 41°10' W 073°10'4 4.0
2015-Feb-21 02:34N 41°07' W 073°08'1211.7
2015-Feb-21 01:34N 41°13' W 072°55'4 4.5
2015-Feb-21 00:34N 41°18' W 072°54'0 0.0
2015-Feb-20 23:34N 41°18' W 072°54'0 0.0
2015-Feb-20 22:34N 41°18' W 072°54'0 0.0
2015-Feb-20 21:34N 41°18' W 072°54'0 0.4
2015-Feb-20 20:33N 41°17' W 072°55'0 0.2
2015-Feb-20 19:32N 41°18' W 072°55'0 0.1
2015-Feb-20 18:10N 41°18' W 072°54'0 0.0
2015-Feb-20 15:18N 41°18' W 072°54'0 0.0
2015-Feb-20 14:32N 41°18' W 072°54'0 0.0
2015-Feb-20 04:23N 41°18' W 072°54'0 0.0
2015-Feb-20 03:33N 41°18' W 072°54'  

Dump ship's entire track history